createdAt,value
2022-08-29T00:04:31.694Z,15.27
2022-08-29T00:09:39.800Z,12.57
2022-08-29T00:14:47.617Z,12.43
2022-08-29T00:19:55.549Z,17.93
2022-08-29T00:25:05.184Z,17.40
2022-08-29T00:30:13.449Z,12.53
2022-08-29T00:35:24.457Z,13.93
2022-08-29T00:40:35.230Z,13.77
2022-08-29T00:45:46.289Z,13.17
2022-08-29T00:50:57.595Z,18.10
2022-08-29T00:56:06.980Z,14.47
2022-08-29T01:01:15.035Z,18.53
2022-08-29T01:06:23.272Z,11.93
2022-08-29T01:11:33.440Z,11.37
2022-08-29T01:16:41.465Z,18.93
2022-08-29T01:21:52.945Z,15.27
2022-08-29T01:27:00.766Z,15.37
2022-08-29T01:32:08.671Z,14.73
2022-08-29T01:37:17.736Z,16.10
2022-08-29T01:42:25.657Z,13.77
2022-08-29T01:47:35.793Z,19.13
2022-08-29T01:52:44.954Z,10.73
2022-08-29T01:57:52.774Z,13.67
2022-08-29T02:03:01.495Z,19.53
2022-08-29T02:08:09.828Z,18.83
2022-08-29T02:13:17.652Z,15.17
2022-08-29T02:18:25.856Z,16.10
2022-08-29T02:23:35.577Z,24.40
2022-08-29T02:28:43.537Z,14.70
2022-08-29T02:33:51.971Z,15.00
2022-08-29T02:38:59.856Z,17.40
2022-08-29T02:44:07.708Z,17.17
2022-08-29T02:49:15.920Z,15.77
2022-08-29T02:54:23.907Z,21.60
2022-08-29T02:59:32.911Z,13.10
2022-08-29T03:04:40.813Z,18.13
2022-08-29T03:09:48.648Z,16.70
2022-08-29T03:14:57.028Z,14.47
2022-08-29T03:20:06.802Z,17.00
2022-08-29T03:25:15.088Z,16.43
2022-08-29T03:30:24.062Z,17.00
2022-08-29T03:35:32.407Z,14.87
2022-08-29T03:40:42.739Z,16.47
2022-08-29T03:45:50.706Z,16.07
2022-08-29T03:50:58.532Z,17.70
2022-08-29T03:56:06.727Z,22.43
2022-08-29T04:01:16.641Z,22.43
2022-08-29T04:06:24.856Z,17.13
2022-08-29T04:11:32.667Z,23.33
2022-08-29T04:16:40.519Z,14.97
2022-08-29T04:21:49.186Z,18.57
2022-08-29T04:26:57.018Z,20.63
2022-08-29T04:32:05.076Z,19.70
2022-08-29T04:37:12.913Z,18.23
2022-08-29T04:42:20.767Z,26.70
2022-08-29T04:47:28.587Z,22.30
2022-08-29T04:52:37.174Z,19.33
2022-08-29T04:57:45.049Z,24.27
2022-08-29T05:02:53.033Z,17.87
2022-08-29T05:08:01.000Z,20.47
2022-08-29T05:13:08.827Z,16.60
2022-08-29T05:18:18.113Z,18.47
2022-08-29T05:23:25.945Z,16.87
2022-08-29T05:28:34.472Z,16.13
2022-08-29T05:33:42.970Z,18.80
2022-08-29T05:38:50.846Z,17.03
2022-08-29T05:43:59.181Z,13.83
2022-08-29T05:49:07.037Z,21.30
2022-08-29T05:54:15.114Z,15.60
2022-08-29T05:59:22.934Z,11.97
2022-08-29T06:04:30.798Z,13.13
2022-08-29T06:09:39.802Z,10.37
2022-08-29T06:15:07.828Z,11.97
2022-08-29T06:20:16.106Z,11.30
2022-08-29T06:25:40.542Z,10.50
2022-08-29T06:30:34.617Z,15.60
2022-08-29T06:35:42.451Z,17.40
2022-08-29T06:40:50.299Z,14.60
2022-08-29T06:45:58.322Z,9.07
2022-08-29T06:51:06.193Z,7.60
2022-08-29T06:56:14.743Z,12.90
2022-08-29T07:01:23.525Z,12.33
2022-08-29T07:06:31.658Z,6.60
2022-08-29T07:11:41.193Z,13.17
2022-08-29T07:16:49.299Z,6.63
2022-08-29T07:21:59.398Z,12.63
2022-08-29T07:27:07.277Z,9.93
2022-08-29T07:32:15.216Z,9.60
2022-08-29T07:37:23.071Z,7.37
2022-08-29T07:42:30.962Z,7.80
2022-08-29T07:47:39.341Z,10.53
2022-08-29T07:52:48.751Z,6.83
2022-08-29T07:57:56.580Z,7.57
2022-08-29T08:03:04.610Z,6.47
2022-08-29T08:08:15.071Z,7.27
2022-08-29T08:13:22.211Z,9.17
2022-08-29T08:18:31.057Z,8.30
2022-08-29T08:23:38.977Z,8.67
2022-08-29T08:28:47.118Z,10.40
2022-08-29T08:33:55.055Z,10.00
2022-08-29T08:39:03.307Z,9.03
2022-08-29T08:44:14.267Z,6.73
2022-08-29T08:49:25.293Z,9.50
2022-08-29T08:54:35.592Z,10.30
2022-08-29T08:59:45.635Z,7.57
2022-08-29T09:04:57.647Z,17.43
2022-08-29T09:15:21.888Z,5.63
2022-08-29T09:20:31.986Z,9.00
2022-08-29T09:25:39.810Z,9.27
2022-08-29T09:30:50.763Z,8.07
2022-08-29T09:36:00.234Z,6.93
2022-08-29T09:41:10.840Z,9.70
2022-08-29T09:46:23.580Z,7.60
2022-08-29T09:51:34.239Z,8.80
2022-08-29T09:56:46.786Z,9.63
2022-08-29T10:01:57.902Z,7.70
2022-08-29T10:07:09.361Z,9.10
2022-08-29T10:12:18.025Z,11.10
2022-08-29T10:17:30.722Z,7.63
2022-08-29T10:22:41.678Z,10.10
2022-08-29T10:27:54.145Z,8.17
2022-08-29T10:33:06.710Z,8.93
2022-08-29T10:38:18.057Z,7.63
2022-08-29T10:43:29.275Z,5.77
2022-08-29T10:48:40.634Z,10.73
2022-08-29T10:53:51.700Z,8.40
2022-08-29T11:04:18.066Z,7.53
2022-08-29T11:09:30.611Z,10.40
2022-08-29T11:14:41.569Z,7.70
2022-08-29T11:19:56.329Z,7.77
2022-08-29T11:25:07.459Z,7.93
2022-08-29T11:30:18.733Z,6.47
2022-08-29T11:35:29.519Z,9.83
2022-08-29T11:40:48.399Z,9.00
2022-08-29T11:45:53.188Z,9.37
2022-08-29T11:51:01.730Z,10.23
2022-08-29T11:56:12.686Z,6.90
2022-08-29T12:01:24.151Z,5.77
2022-08-29T12:06:35.433Z,6.57
2022-08-29T12:11:47.179Z,9.50
2022-08-29T12:16:55.135Z,4.93
2022-08-29T12:22:02.964Z,6.27
2022-08-29T12:27:15.770Z,8.30
2022-08-29T12:32:29.780Z,6.87
2022-08-29T12:37:39.672Z,8.53
2022-08-29T12:42:51.577Z,5.20
2022-08-29T12:48:01.875Z,7.97
2022-08-29T12:53:12.894Z,6.03
2022-08-29T12:58:23.893Z,8.17
2022-08-29T13:03:30.817Z,10.60
2022-08-29T13:08:38.241Z,7.35
2022-08-29T13:13:46.272Z,7.37
2022-08-29T13:19:09.969Z,6.00
2022-08-29T13:24:06.879Z,6.43
2022-08-29T13:29:17.958Z,11.27
2022-08-29T13:34:25.802Z,7.70
2022-08-29T13:39:41.225Z,4.93
2022-08-29T13:50:03.458Z,4.60
2022-08-29T13:55:11.585Z,5.57
2022-08-29T14:00:22.795Z,5.87
2022-08-29T14:05:30.408Z,5.53
2022-08-29T14:10:38.244Z,5.90
2022-08-29T14:15:46.331Z,5.73
2022-08-29T14:20:54.333Z,5.10
2022-08-29T14:26:02.245Z,8.97
2022-08-29T14:31:10.141Z,7.50
2022-08-29T14:36:17.989Z,4.67
2022-08-29T14:41:27.385Z,5.80
2022-08-29T14:46:35.286Z,5.90
2022-08-29T14:51:44.653Z,5.67
2022-08-29T14:56:54.123Z,5.90
2022-08-29T15:02:02.117Z,6.27
2022-08-29T15:07:12.147Z,13.53
2022-08-29T15:12:21.842Z,4.53
2022-08-29T15:17:29.931Z,11.23
2022-08-29T15:22:37.896Z,7.17
2022-08-29T15:27:47.295Z,6.27
2022-08-29T15:32:55.338Z,6.83
2022-08-29T15:38:03.264Z,6.57
2022-08-29T15:43:11.214Z,5.87
2022-08-29T15:48:19.184Z,7.40
2022-08-29T15:53:27.253Z,4.93
2022-08-29T15:58:36.051Z,6.63
2022-08-29T16:03:44.002Z,6.63
2022-08-29T16:08:55.348Z,5.00
2022-08-29T16:14:34.525Z,5.60
2022-08-29T16:19:11.459Z,7.07
2022-08-29T16:24:20.946Z,4.90
2022-08-29T16:29:28.970Z,12.03
2022-08-29T16:34:36.829Z,5.17
2022-08-29T16:39:44.790Z,9.63
2022-08-29T16:44:53.789Z,6.03
2022-08-29T16:50:02.154Z,9.50
2022-08-29T16:55:11.751Z,4.93
2022-08-29T17:06:07.572Z,6.97
2022-08-29T17:11:17.371Z,7.40
2022-08-29T17:16:26.529Z,7.87
2022-08-29T17:21:35.261Z,12.80
2022-08-29T17:26:44.656Z,6.83
2022-08-29T17:31:52.665Z,9.97
2022-08-29T17:37:00.667Z,7.43
2022-08-29T17:42:08.794Z,6.33
2022-08-29T17:47:16.684Z,8.37
2022-08-29T17:52:24.606Z,9.27
2022-08-29T17:57:33.442Z,5.50
2022-08-29T18:02:42.023Z,7.77
2022-08-29T18:07:50.081Z,9.27
2022-08-29T18:12:58.581Z,7.87
2022-08-29T18:18:06.716Z,8.97
2022-08-29T18:23:14.664Z,6.83
2022-08-29T18:28:22.736Z,8.23
2022-08-29T18:33:50.369Z,6.63
2022-08-29T18:38:41.399Z,8.87
2022-08-29T18:43:49.996Z,8.00
2022-08-29T18:48:58.140Z,11.50
2022-08-29T18:54:06.417Z,6.63
2022-08-29T18:59:14.299Z,10.07
2022-08-29T19:04:25.424Z,7.50
2022-08-29T19:09:32.284Z,7.07
2022-08-29T19:14:46.082Z,11.50
2022-08-29T19:19:59.149Z,10.07
2022-08-29T19:25:09.317Z,15.30
2022-08-29T19:30:18.215Z,17.53
2022-08-29T19:35:26.888Z,17.57
2022-08-29T19:40:39.296Z,11.70
2022-08-29T19:45:45.803Z,7.43
2022-08-29T19:50:54.512Z,11.73
2022-08-29T19:56:02.610Z,11.40
2022-08-29T20:01:10.798Z,11.87
2022-08-29T20:06:19.195Z,11.10
2022-08-29T20:11:27.528Z,7.23
2022-08-29T20:16:36.376Z,10.77
2022-08-29T20:21:47.029Z,12.10
2022-08-29T20:26:55.206Z,13.27
2022-08-29T20:32:04.980Z,9.57
2022-08-29T20:37:14.343Z,8.53
2022-08-29T20:42:24.463Z,11.90
2022-08-29T20:47:32.298Z,9.70
2022-08-29T20:52:40.226Z,11.97
2022-08-29T20:57:48.146Z,7.60
2022-08-29T21:02:57.844Z,9.40
2022-08-29T21:08:05.698Z,10.37
2022-08-29T21:13:13.777Z,9.80
2022-08-29T21:18:21.812Z,8.93
2022-08-29T21:23:29.796Z,10.37
2022-08-29T21:28:37.983Z,8.83
2022-08-29T21:33:47.553Z,13.67
2022-08-29T21:38:57.415Z,6.87
2022-08-29T21:44:05.512Z,6.93
2022-08-29T21:49:17.152Z,8.33
2022-08-29T21:54:25.073Z,8.57
2022-08-29T21:59:32.960Z,8.10
2022-08-29T22:04:42.059Z,10.03
2022-08-29T22:09:50.624Z,9.43
2022-08-29T22:15:00.133Z,10.57
2022-08-29T22:20:08.547Z,7.60
2022-08-29T22:25:16.541Z,6.80
2022-08-29T22:30:32.123Z,8.73
2022-08-29T22:35:34.055Z,10.60
2022-08-29T22:40:43.917Z,9.67
2022-08-29T22:45:54.092Z,7.60
2022-08-29T22:51:02.084Z,9.53
2022-08-29T22:56:10.690Z,13.03
2022-08-29T23:01:18.784Z,16.70
2022-08-29T23:06:27.591Z,10.83
2022-08-29T23:11:35.615Z,15.70
2022-08-29T23:16:44.555Z,9.70
2022-08-29T23:21:54.198Z,11.83
2022-08-29T23:27:02.807Z,11.47
2022-08-29T23:32:10.724Z,21.73
2022-08-29T23:37:18.640Z,16.97
2022-08-29T23:42:26.590Z,12.87
2022-08-29T23:47:36.221Z,15.90
2022-08-29T23:52:44.596Z,13.80
2022-08-29T23:57:52.484Z,9.37
